sensor_id;sensor_type;location;lat;lon;timestamp;P1;durP1;ratioP1;P2;durP2;ratioP2
13611;SDS011;6877;51.436;6.774;2022-10-31T00:00:57;13.15;;;8.30;;
13611;SDS011;6877;51.436;6.774;2022-10-31T00:03:28;14.00;;;8.00;;
13611;SDS011;6877;51.436;6.774;2022-10-31T00:06:00;14.07;;;8.50;;
13611;SDS011;6877;51.436;6.774;2022-10-31T00:08:32;11.23;;;7.05;;
13611;SDS011;6877;51.436;6.774;2022-10-31T00:11:07;13.15;;;6.80;;
13611;SDS011;6877;51.436;6.774;2022-10-31T00:13:40;10.07;;;5.45;;
13611;SDS011;6877;51.436;6.774;2022-10-31T00:16:12;11.73;;;6.90;;
13611;SDS011;6877;51.436;6.774;2022-10-31T00:18:41;14.27;;;7.13;;
13611;SDS011;6877;51.436;6.774;2022-10-31T00:21:12;9.00;;;6.60;;
13611;SDS011;6877;51.436;6.774;2022-10-31T00:23:43;12.63;;;7.78;;
13611;SDS011;6877;51.436;6.774;2022-10-31T00:26:15;11.07;;;7.38;;
13611;SDS011;6877;51.436;6.774;2022-10-31T00:28:46;9.10;;;5.72;;
13611;SDS011;6877;51.436;6.774;2022-10-31T00:31:18;18.83;;;9.73;;
13611;SDS011;6877;51.436;6.774;2022-10-31T00:33:50;11.63;;;7.45;;
13611;SDS011;6877;51.436;6.774;2022-10-31T00:36:21;15.95;;;7.55;;
13611;SDS011;6877;51.436;6.774;2022-10-31T00:38:53;11.05;;;7.13;;
13611;SDS011;6877;51.436;6.774;2022-10-31T00:41:19;10.82;;;7.57;;
13611;SDS011;6877;51.436;6.774;2022-10-31T00:43:51;11.18;;;8.00;;
13611;SDS011;6877;51.436;6.774;2022-10-31T00:46:22;13.77;;;7.82;;
13611;SDS011;6877;51.436;6.774;2022-10-31T00:48:53;12.50;;;8.05;;
13611;SDS011;6877;51.436;6.774;2022-10-31T00:51:25;15.85;;;9.55;;
13611;SDS011;6877;51.436;6.774;2022-10-31T00:53:56;21.73;;;10.05;;
13611;SDS011;6877;51.436;6.774;2022-10-31T00:56:23;18.08;;;10.10;;
13611;SDS011;6877;51.436;6.774;2022-10-31T00:58:54;19.83;;;9.65;;
13611;SDS011;6877;51.436;6.774;2022-10-31T01:01:26;12.00;;;8.27;;
13611;SDS011;6877;51.436;6.774;2022-10-31T01:03:57;22.30;;;12.38;;
13611;SDS011;6877;51.436;6.774;2022-10-31T01:06:29;18.30;;;10.60;;
13611;SDS011;6877;51.436;6.774;2022-10-31T01:09:00;17.27;;;10.23;;
13611;SDS011;6877;51.436;6.774;2022-10-31T01:11:26;19.85;;;11.00;;
13611;SDS011;6877;51.436;6.774;2022-10-31T01:13:58;16.92;;;10.38;;
13611;SDS011;6877;51.436;6.774;2022-10-31T01:16:29;29.05;;;10.98;;
13611;SDS011;6877;51.436;6.774;2022-10-31T01:19:01;21.60;;;11.90;;
13611;SDS011;6877;51.436;6.774;2022-10-31T01:21:33;17.33;;;10.15;;
13611;SDS011;6877;51.436;6.774;2022-10-31T01:24:04;19.92;;;12.02;;
13611;SDS011;6877;51.436;6.774;2022-10-31T01:26:36;17.67;;;10.30;;
13611;SDS011;6877;51.436;6.774;2022-10-31T01:29:08;23.90;;;12.20;;
13611;SDS011;6877;51.436;6.774;2022-10-31T01:31:39;33.00;;;11.77;;
13611;SDS011;6877;51.436;6.774;2022-10-31T01:34:15;20.40;;;11.30;;
13611;SDS011;6877;51.436;6.774;2022-10-31T01:36:48;18.67;;;10.60;;
13611;SDS011;6877;51.436;6.774;2022-10-31T01:39:22;22.67;;;10.98;;
13611;SDS011;6877;51.436;6.774;2022-10-31T01:41:54;20.70;;;12.13;;
13611;SDS011;6877;51.436;6.774;2022-10-31T01:47:15;14.43;;;8.98;;
13611;SDS011;6877;51.436;6.774;2022-10-31T01:49:51;16.98;;;10.52;;
13611;SDS011;6877;51.436;6.774;2022-10-31T01:55:05;25.27;;;11.30;;
13611;SDS011;6877;51.436;6.774;2022-10-31T01:57:43;22.73;;;11.50;;
13611;SDS011;6877;51.436;6.774;2022-10-31T02:00:19;22.27;;;9.63;;
13611;SDS011;6877;51.436;6.774;2022-10-31T02:02:51;15.70;;;8.43;;
13611;SDS011;6877;51.436;6.774;2022-10-31T02:05:24;14.10;;;8.63;;
13611;SDS011;6877;51.436;6.774;2022-10-31T02:10:58;11.93;;;7.75;;
13611;SDS011;6877;51.436;6.774;2022-10-31T02:13:31;14.25;;;8.75;;
13611;SDS011;6877;51.436;6.774;2022-10-31T02:16:05;15.23;;;8.70;;
13611;SDS011;6877;51.436;6.774;2022-10-31T02:18:37;18.83;;;9.75;;
13611;SDS011;6877;51.436;6.774;2022-10-31T02:32:17;17.20;;;8.02;;
13611;SDS011;6877;51.436;6.774;2022-10-31T02:37:47;16.65;;;9.55;;
13611;SDS011;6877;51.436;6.774;2022-10-31T02:40:39;12.95;;;8.35;;
13611;SDS011;6877;51.436;6.774;2022-10-31T02:43:19;11.82;;;7.63;;
13611;SDS011;6877;51.436;6.774;2022-10-31T02:45:58;14.95;;;8.43;;
13611;SDS011;6877;51.436;6.774;2022-10-31T02:48:39;12.70;;;7.65;;
13611;SDS011;6877;51.436;6.774;2022-10-31T02:51:10;15.50;;;8.68;;
13611;SDS011;6877;51.436;6.774;2022-10-31T02:53:42;17.45;;;9.88;;
13611;SDS011;6877;51.436;6.774;2022-10-31T02:56:15;17.15;;;9.18;;
13611;SDS011;6877;51.436;6.774;2022-10-31T02:58:53;18.88;;;9.07;;
13611;SDS011;6877;51.436;6.774;2022-10-31T03:07:13;20.05;;;9.63;;
13611;SDS011;6877;51.436;6.774;2022-10-31T03:15:49;19.17;;;10.35;;
13611;SDS011;6877;51.436;6.774;2022-10-31T03:21:14;22.13;;;10.20;;
13611;SDS011;6877;51.436;6.774;2022-10-31T03:23:59;14.15;;;9.25;;
13611;SDS011;6877;51.436;6.774;2022-10-31T03:26:34;16.58;;;8.63;;
13611;SDS011;6877;51.436;6.774;2022-10-31T03:29:10;14.40;;;8.52;;
13611;SDS011;6877;51.436;6.774;2022-10-31T03:31:49;13.35;;;9.13;;
13611;SDS011;6877;51.436;6.774;2022-10-31T03:34:25;13.23;;;8.88;;
13611;SDS011;6877;51.436;6.774;2022-10-31T03:37:00;16.33;;;8.75;;
13611;SDS011;6877;51.436;6.774;2022-10-31T03:39:30;12.88;;;7.60;;
13611;SDS011;6877;51.436;6.774;2022-10-31T03:42:07;12.60;;;8.35;;
13611;SDS011;6877;51.436;6.774;2022-10-31T03:44:43;14.13;;;7.45;;
13611;SDS011;6877;51.436;6.774;2022-10-31T03:47:18;13.38;;;8.50;;
13611;SDS011;6877;51.436;6.774;2022-10-31T03:49:50;18.38;;;9.57;;
13611;SDS011;6877;51.436;6.774;2022-10-31T03:57:45;14.43;;;9.38;;
13611;SDS011;6877;51.436;6.774;2022-10-31T04:00:20;22.38;;;12.30;;
13611;SDS011;6877;51.436;6.774;2022-10-31T04:02:53;21.20;;;10.70;;
13611;SDS011;6877;51.436;6.774;2022-10-31T04:05:31;20.38;;;10.98;;
13611;SDS011;6877;51.436;6.774;2022-10-31T04:08:04;18.13;;;10.50;;
13611;SDS011;6877;51.436;6.774;2022-10-31T04:10:40;18.65;;;10.82;;
13611;SDS011;6877;51.436;6.774;2022-10-31T04:13:17;17.23;;;10.77;;
13611;SDS011;6877;51.436;6.774;2022-10-31T04:15:54;16.70;;;9.55;;
13611;SDS011;6877;51.436;6.774;2022-10-31T04:18:26;18.67;;;11.93;;
13611;SDS011;6877;51.436;6.774;2022-10-31T04:20:59;14.88;;;10.23;;
13611;SDS011;6877;51.436;6.774;2022-10-31T04:23:35;14.50;;;9.32;;
13611;SDS011;6877;51.436;6.774;2022-10-31T04:26:08;23.63;;;12.15;;
13611;SDS011;6877;51.436;6.774;2022-10-31T04:28:37;23.67;;;11.27;;
13611;SDS011;6877;51.436;6.774;2022-10-31T04:31:10;24.30;;;12.13;;
13611;SDS011;6877;51.436;6.774;2022-10-31T04:33:42;28.63;;;14.23;;
13611;SDS011;6877;51.436;6.774;2022-10-31T04:36:14;22.20;;;12.07;;
13611;SDS011;6877;51.436;6.774;2022-10-31T04:38:45;25.05;;;11.45;;
13611;SDS011;6877;51.436;6.774;2022-10-31T04:41:17;20.33;;;12.48;;
13611;SDS011;6877;51.436;6.774;2022-10-31T04:43:48;19.35;;;10.38;;
13611;SDS011;6877;51.436;6.774;2022-10-31T04:46:20;14.10;;;9.80;;
13611;SDS011;6877;51.436;6.774;2022-10-31T04:48:51;22.05;;;10.73;;
13611;SDS011;6877;51.436;6.774;2022-10-31T04:51:23;26.42;;;11.98;;
13611;SDS011;6877;51.436;6.774;2022-10-31T04:53:54;21.55;;;13.52;;
13611;SDS011;6877;51.436;6.774;2022-10-31T04:56:26;17.73;;;11.15;;
13611;SDS011;6877;51.436;6.774;2022-10-31T04:58:58;15.55;;;9.43;;
13611;SDS011;6877;51.436;6.774;2022-10-31T05:01:29;18.20;;;9.20;;
13611;SDS011;6877;51.436;6.774;2022-10-31T05:04:00;13.52;;;8.80;;
13611;SDS011;6877;51.436;6.774;2022-10-31T05:06:27;14.68;;;7.60;;
13611;SDS011;6877;51.436;6.774;2022-10-31T05:08:58;12.85;;;8.13;;
13611;SDS011;6877;51.436;6.774;2022-10-31T05:11:25;13.45;;;8.70;;
13611;SDS011;6877;51.436;6.774;2022-10-31T05:13:56;13.35;;;8.00;;
13611;SDS011;6877;51.436;6.774;2022-10-31T05:16:27;15.48;;;8.98;;
13611;SDS011;6877;51.436;6.774;2022-10-31T05:18:59;11.02;;;7.70;;
13611;SDS011;6877;51.436;6.774;2022-10-31T05:21:30;14.07;;;8.35;;
13611;SDS011;6877;51.436;6.774;2022-10-31T05:23:57;14.85;;;7.65;;
13611;SDS011;6877;51.436;6.774;2022-10-31T05:26:28;21.77;;;11.50;;
13611;SDS011;6877;51.436;6.774;2022-10-31T05:29:00;17.48;;;10.02;;
13611;SDS011;6877;51.436;6.774;2022-10-31T05:31:31;17.40;;;10.05;;
13611;SDS011;6877;51.436;6.774;2022-10-31T05:34:03;14.75;;;7.10;;
13611;SDS011;6877;51.436;6.774;2022-10-31T05:36:29;16.80;;;9.32;;
13611;SDS011;6877;51.436;6.774;2022-10-31T05:39:01;11.82;;;7.68;;
13611;SDS011;6877;51.436;6.774;2022-10-31T05:41:27;13.43;;;8.98;;
13611;SDS011;6877;51.436;6.774;2022-10-31T05:43:58;14.20;;;7.78;;
13611;SDS011;6877;51.436;6.774;2022-10-31T05:46:30;16.20;;;8.80;;
13611;SDS011;6877;51.436;6.774;2022-10-31T05:49:01;16.65;;;9.52;;
13611;SDS011;6877;51.436;6.774;2022-10-31T05:51:33;14.35;;;7.43;;
13611;SDS011;6877;51.436;6.774;2022-10-31T05:54:05;14.52;;;9.30;;
13611;SDS011;6877;51.436;6.774;2022-10-31T05:56:36;14.90;;;9.13;;
13611;SDS011;6877;51.436;6.774;2022-10-31T05:59:07;14.68;;;8.00;;
13611;SDS011;6877;51.436;6.774;2022-10-31T06:01:39;12.32;;;8.35;;
13611;SDS011;6877;51.436;6.774;2022-10-31T06:04:10;12.93;;;7.68;;
13611;SDS011;6877;51.436;6.774;2022-10-31T06:06:42;14.52;;;7.78;;
13611;SDS011;6877;51.436;6.774;2022-10-31T06:09:13;20.90;;;10.38;;
13611;SDS011;6877;51.436;6.774;2022-10-31T06:11:45;14.30;;;7.97;;
13611;SDS011;6877;51.436;6.774;2022-10-31T06:14:17;16.58;;;8.57;;
13611;SDS011;6877;51.436;6.774;2022-10-31T06:16:49;14.40;;;7.70;;
13611;SDS011;6877;51.436;6.774;2022-10-31T06:19:15;12.35;;;7.82;;
13611;SDS011;6877;51.436;6.774;2022-10-31T06:21:42;18.08;;;9.15;;
13611;SDS011;6877;51.436;6.774;2022-10-31T06:24:13;19.48;;;8.75;;
13611;SDS011;6877;51.436;6.774;2022-10-31T06:26:46;24.98;;;9.85;;
13611;SDS011;6877;51.436;6.774;2022-10-31T06:29:17;13.93;;;8.65;;
13611;SDS011;6877;51.436;6.774;2022-10-31T06:31:50;12.02;;;8.35;;
13611;SDS011;6877;51.436;6.774;2022-10-31T06:34:22;26.90;;;11.85;;
13611;SDS011;6877;51.436;6.774;2022-10-31T06:36:54;17.35;;;9.50;;
13611;SDS011;6877;51.436;6.774;2022-10-31T06:39:25;12.60;;;8.45;;
13611;SDS011;6877;51.436;6.774;2022-10-31T06:41:57;14.77;;;9.38;;
13611;SDS011;6877;51.436;6.774;2022-10-31T06:44:28;11.32;;;7.13;;
13611;SDS011;6877;51.436;6.774;2022-10-31T06:47:00;21.20;;;9.68;;
13611;SDS011;6877;51.436;6.774;2022-10-31T06:49:31;13.57;;;8.05;;
13611;SDS011;6877;51.436;6.774;2022-10-31T06:52:03;22.95;;;10.93;;
13611;SDS011;6877;51.436;6.774;2022-10-31T06:54:34;19.63;;;10.55;;
13611;SDS011;6877;51.436;6.774;2022-10-31T06:57:06;17.08;;;8.60;;
13611;SDS011;6877;51.436;6.774;2022-10-31T06:59:37;14.43;;;9.20;;
13611;SDS011;6877;51.436;6.774;2022-10-31T07:02:04;15.10;;;8.35;;
13611;SDS011;6877;51.436;6.774;2022-10-31T07:04:36;10.57;;;7.50;;
13611;SDS011;6877;51.436;6.774;2022-10-31T07:07:07;20.50;;;9.68;;
13611;SDS011;6877;51.436;6.774;2022-10-31T07:09:39;28.90;;;12.25;;
13611;SDS011;6877;51.436;6.774;2022-10-31T07:12:10;26.10;;;12.18;;
13611;SDS011;6877;51.436;6.774;2022-10-31T07:14:42;19.73;;;10.18;;
13611;SDS011;6877;51.436;6.774;2022-10-31T07:17:13;15.93;;;9.27;;
13611;SDS011;6877;51.436;6.774;2022-10-31T07:19:39;18.40;;;9.18;;
13611;SDS011;6877;51.436;6.774;2022-10-31T07:22:11;17.02;;;8.40;;
13611;SDS011;6877;51.436;6.774;2022-10-31T07:24:42;20.52;;;9.98;;
13611;SDS011;6877;51.436;6.774;2022-10-31T07:27:14;18.25;;;9.38;;
13611;SDS011;6877;51.436;6.774;2022-10-31T07:29:45;19.95;;;12.23;;
13611;SDS011;6877;51.436;6.774;2022-10-31T07:32:16;17.25;;;8.90;;
13611;SDS011;6877;51.436;6.774;2022-10-31T07:34:48;26.92;;;11.50;;
13611;SDS011;6877;51.436;6.774;2022-10-31T07:37:19;14.50;;;8.70;;
13611;SDS011;6877;51.436;6.774;2022-10-31T07:39:51;12.90;;;8.68;;
13611;SDS011;6877;51.436;6.774;2022-10-31T07:42:22;13.88;;;7.95;;
13611;SDS011;6877;51.436;6.774;2022-10-31T07:44:54;18.10;;;9.27;;
13611;SDS011;6877;51.436;6.774;2022-10-31T07:47:20;26.88;;;11.32;;
13611;SDS011;6877;51.436;6.774;2022-10-31T07:49:47;21.08;;;11.43;;
13611;SDS011;6877;51.436;6.774;2022-10-31T07:52:18;21.75;;;10.70;;
13611;SDS011;6877;51.436;6.774;2022-10-31T07:54:50;16.88;;;10.05;;
13611;SDS011;6877;51.436;6.774;2022-10-31T07:57:21;24.70;;;13.55;;
13611;SDS011;6877;51.436;6.774;2022-10-31T07:59:52;17.65;;;10.65;;
13611;SDS011;6877;51.436;6.774;2022-10-31T08:02:25;20.67;;;12.00;;
13611;SDS011;6877;51.436;6.774;2022-10-31T08:04:56;19.75;;;10.63;;
13611;SDS011;6877;51.436;6.774;2022-10-31T08:07:28;18.77;;;10.27;;
13611;SDS011;6877;51.436;6.774;2022-10-31T08:09:59;18.85;;;10.73;;
13611;SDS011;6877;51.436;6.774;2022-10-31T08:12:31;22.35;;;12.27;;
13611;SDS011;6877;51.436;6.774;2022-10-31T08:15:03;21.73;;;11.40;;
13611;SDS011;6877;51.436;6.774;2022-10-31T08:17:35;25.52;;;11.40;;
13611;SDS011;6877;51.436;6.774;2022-10-31T08:20:07;25.30;;;12.68;;
13611;SDS011;6877;51.436;6.774;2022-10-31T08:22:38;21.92;;;11.15;;
13611;SDS011;6877;51.436;6.774;2022-10-31T08:25:10;17.77;;;9.65;;
13611;SDS011;6877;51.436;6.774;2022-10-31T08:27:41;25.20;;;12.10;;
13611;SDS011;6877;51.436;6.774;2022-10-31T08:30:13;22.27;;;11.48;;
13611;SDS011;6877;51.436;6.774;2022-10-31T08:32:44;20.10;;;12.23;;
13611;SDS011;6877;51.436;6.774;2022-10-31T08:35:16;20.80;;;11.30;;
13611;SDS011;6877;51.436;6.774;2022-10-31T08:37:43;18.85;;;12.13;;
13611;SDS011;6877;51.436;6.774;2022-10-31T08:40:14;19.05;;;11.10;;
13611;SDS011;6877;51.436;6.774;2022-10-31T08:42:45;22.75;;;11.75;;
13611;SDS011;6877;51.436;6.774;2022-10-31T08:45:17;19.48;;;9.98;;
13611;SDS011;6877;51.436;6.774;2022-10-31T08:47:48;18.67;;;10.90;;
13611;SDS011;6877;51.436;6.774;2022-10-31T08:50:20;18.75;;;10.57;;
13611;SDS011;6877;51.436;6.774;2022-10-31T08:52:51;14.55;;;8.75;;
13611;SDS011;6877;51.436;6.774;2022-10-31T08:55:22;16.65;;;10.82;;
13611;SDS011;6877;51.436;6.774;2022-10-31T08:57:54;17.60;;;9.77;;
13611;SDS011;6877;51.436;6.774;2022-10-31T09:00:27;13.30;;;9.55;;
13611;SDS011;6877;51.436;6.774;2022-10-31T09:03:00;13.98;;;8.65;;
13611;SDS011;6877;51.436;6.774;2022-10-31T09:05:34;14.18;;;8.48;;
13611;SDS011;6877;51.436;6.774;2022-10-31T09:08:06;17.05;;;9.05;;
13611;SDS011;6877;51.436;6.774;2022-10-31T09:10:38;14.48;;;9.85;;
13611;SDS011;6877;51.436;6.774;2022-10-31T09:13:14;22.85;;;10.00;;
13611;SDS011;6877;51.436;6.774;2022-10-31T09:15:50;19.73;;;11.80;;
13611;SDS011;6877;51.436;6.774;2022-10-31T09:18:22;21.33;;;11.13;;
13611;SDS011;6877;51.436;6.774;2022-10-31T09:20:49;26.55;;;13.60;;
13611;SDS011;6877;51.436;6.774;2022-10-31T09:23:22;19.50;;;11.00;;
13611;SDS011;6877;51.436;6.774;2022-10-31T09:25:54;22.05;;;11.77;;
13611;SDS011;6877;51.436;6.774;2022-10-31T09:28:26;21.63;;;13.23;;
13611;SDS011;6877;51.436;6.774;2022-10-31T09:30:57;19.55;;;10.00;;
13611;SDS011;6877;51.436;6.774;2022-10-31T09:33:29;19.45;;;9.77;;
13611;SDS011;6877;51.436;6.774;2022-10-31T09:36:00;18.77;;;10.82;;
13611;SDS011;6877;51.436;6.774;2022-10-31T09:38:31;20.45;;;10.75;;
13611;SDS011;6877;51.436;6.774;2022-10-31T09:41:06;23.13;;;12.18;;
13611;SDS011;6877;51.436;6.774;2022-10-31T09:46:46;22.85;;;11.00;;
13611;SDS011;6877;51.436;6.774;2022-10-31T09:50:12;22.70;;;12.88;;
13611;SDS011;6877;51.436;6.774;2022-10-31T09:52:29;23.50;;;13.35;;
13611;SDS011;6877;51.436;6.774;2022-10-31T09:55:20;24.60;;;12.13;;
13611;SDS011;6877;51.436;6.774;2022-10-31T09:58:01;19.10;;;11.32;;
13611;SDS011;6877;51.436;6.774;2022-10-31T10:00:33;18.58;;;12.15;;
13611;SDS011;6877;51.436;6.774;2022-10-31T10:08:55;26.50;;;13.35;;
13611;SDS011;6877;51.436;6.774;2022-10-31T10:28:17;24.02;;;11.85;;
13611;SDS011;6877;51.436;6.774;2022-10-31T10:31:03;26.73;;;14.73;;
13611;SDS011;6877;51.436;6.774;2022-10-31T10:33:46;27.02;;;14.50;;
13611;SDS011;6877;51.436;6.774;2022-10-31T10:36:37;26.45;;;14.00;;
13611;SDS011;6877;51.436;6.774;2022-10-31T10:39:28;24.15;;;14.70;;
13611;SDS011;6877;51.436;6.774;2022-10-31T10:42:06;35.05;;;17.05;;
13611;SDS011;6877;51.436;6.774;2022-10-31T10:45:15;28.90;;;14.95;;
13611;SDS011;6877;51.436;6.774;2022-10-31T10:51:00;28.70;;;15.25;;
13611;SDS011;6877;51.436;6.774;2022-10-31T10:53:44;36.22;;;16.90;;
13611;SDS011;6877;51.436;6.774;2022-10-31T10:59:15;36.70;;;18.60;;
13611;SDS011;6877;51.436;6.774;2022-10-31T11:01:50;25.65;;;15.07;;
13611;SDS011;6877;51.436;6.774;2022-10-31T11:07:09;32.95;;;16.48;;
13611;SDS011;6877;51.436;6.774;2022-10-31T11:09:42;28.90;;;15.93;;
13611;SDS011;6877;51.436;6.774;2022-10-31T11:12:25;33.38;;;17.48;;
13611;SDS011;6877;51.436;6.774;2022-10-31T11:15:15;28.85;;;16.40;;
13611;SDS011;6877;51.436;6.774;2022-10-31T11:17:52;34.20;;;17.98;;
13611;SDS011;6877;51.436;6.774;2022-10-31T11:20:31;31.55;;;16.88;;
13611;SDS011;6877;51.436;6.774;2022-10-31T11:23:18;34.85;;;16.33;;
13611;SDS011;6877;51.436;6.774;2022-10-31T11:28:27;34.95;;;17.27;;
13611;SDS011;6877;51.436;6.774;2022-10-31T11:30:59;29.30;;;17.05;;
13611;SDS011;6877;51.436;6.774;2022-10-31T11:33:33;27.48;;;14.98;;
13611;SDS011;6877;51.436;6.774;2022-10-31T11:36:26;36.10;;;15.23;;
13611;SDS011;6877;51.436;6.774;2022-10-31T11:39:00;31.25;;;15.63;;
13611;SDS011;6877;51.436;6.774;2022-10-31T11:41:34;29.35;;;15.00;;
13611;SDS011;6877;51.436;6.774;2022-10-31T11:46:51;26.45;;;13.65;;
13611;SDS011;6877;51.436;6.774;2022-10-31T11:49:23;17.83;;;11.15;;
13611;SDS011;6877;51.436;6.774;2022-10-31T11:52:12;28.73;;;13.43;;
13611;SDS011;6877;51.436;6.774;2022-10-31T11:54:46;28.27;;;12.80;;
13611;SDS011;6877;51.436;6.774;2022-10-31T12:00:03;32.25;;;13.23;;
13611;SDS011;6877;51.436;6.774;2022-10-31T12:02:36;21.48;;;10.52;;
13611;SDS011;6877;51.436;6.774;2022-10-31T12:07:47;22.95;;;11.68;;
13611;SDS011;6877;51.436;6.774;2022-10-31T12:10:21;21.60;;;10.95;;
13611;SDS011;6877;51.436;6.774;2022-10-31T12:15:44;20.02;;;10.38;;
13611;SDS011;6877;51.436;6.774;2022-10-31T12:18:43;21.80;;;11.25;;
13611;SDS011;6877;51.436;6.774;2022-10-31T12:30:14;16.70;;;8.18;;
13611;SDS011;6877;51.436;6.774;2022-10-31T12:58:33;17.40;;;10.18;;
13611;SDS011;6877;51.436;6.774;2022-10-31T13:04:30;15.82;;;10.38;;
13611;SDS011;6877;51.436;6.774;2022-10-31T13:07:15;22.27;;;9.38;;
13611;SDS011;6877;51.436;6.774;2022-10-31T13:09:59;17.70;;;9.27;;
13611;SDS011;6877;51.436;6.774;2022-10-31T13:12:32;19.65;;;9.88;;
13611;SDS011;6877;51.436;6.774;2022-10-31T13:15:12;16.40;;;10.02;;
13611;SDS011;6877;51.436;6.774;2022-10-31T13:17:49;21.13;;;10.68;;
13611;SDS011;6877;51.436;6.774;2022-10-31T13:20:28;18.90;;;10.90;;
13611;SDS011;6877;51.436;6.774;2022-10-31T13:25:42;14.80;;;7.47;;
13611;SDS011;6877;51.436;6.774;2022-10-31T13:31:38;16.73;;;7.80;;
13611;SDS011;6877;51.436;6.774;2022-10-31T13:39:46;18.20;;;7.88;;
13611;SDS011;6877;51.436;6.774;2022-10-31T13:42:32;17.98;;;6.88;;
13611;SDS011;6877;51.436;6.774;2022-10-31T13:45:30;14.00;;;7.88;;
13611;SDS011;6877;51.436;6.774;2022-10-31T13:50:59;19.20;;;9.15;;
13611;SDS011;6877;51.436;6.774;2022-10-31T13:53:37;14.90;;;6.13;;
13611;SDS011;6877;51.436;6.774;2022-10-31T13:56:18;14.55;;;6.20;;
13611;SDS011;6877;51.436;6.774;2022-10-31T13:58:58;15.38;;;6.65;;
13611;SDS011;6877;51.436;6.774;2022-10-31T14:01:32;19.52;;;6.90;;
13611;SDS011;6877;51.436;6.774;2022-10-31T14:12:51;17.80;;;5.38;;
13611;SDS011;6877;51.436;6.774;2022-10-31T14:15:25;18.83;;;5.55;;
13611;SDS011;6877;51.436;6.774;2022-10-31T14:18:00;12.00;;;4.05;;
13611;SDS011;6877;51.436;6.774;2022-10-31T14:28:55;13.43;;;5.18;;
13611;SDS011;6877;51.436;6.774;2022-10-31T14:31:45;10.88;;;4.50;;
13611;SDS011;6877;51.436;6.774;2022-10-31T14:34:32;11.75;;;5.22;;
13611;SDS011;6877;51.436;6.774;2022-10-31T14:48:51;13.57;;;5.22;;
13611;SDS011;6877;51.436;6.774;2022-10-31T14:51:44;8.85;;;4.05;;
13611;SDS011;6877;51.436;6.774;2022-10-31T14:54:19;16.33;;;5.30;;
13611;SDS011;6877;51.436;6.774;2022-10-31T14:57:06;15.57;;;4.72;;
13611;SDS011;6877;51.436;6.774;2022-10-31T14:59:48;18.77;;;5.68;;
13611;SDS011;6877;51.436;6.774;2022-10-31T15:05:17;10.32;;;4.80;;
13611;SDS011;6877;51.436;6.774;2022-10-31T15:07:51;10.75;;;4.22;;
13611;SDS011;6877;51.436;6.774;2022-10-31T15:10:25;14.00;;;5.85;;
13611;SDS011;6877;51.436;6.774;2022-10-31T15:16:01;12.82;;;4.78;;
13611;SDS011;6877;51.436;6.774;2022-10-31T15:18:27;13.63;;;5.07;;
13611;SDS011;6877;51.436;6.774;2022-10-31T15:20:59;8.48;;;4.82;;
13611;SDS011;6877;51.436;6.774;2022-10-31T15:23:31;8.50;;;4.10;;
13611;SDS011;6877;51.436;6.774;2022-10-31T15:26:04;8.45;;;4.25;;
13611;SDS011;6877;51.436;6.774;2022-10-31T15:28:36;11.25;;;5.25;;
13611;SDS011;6877;51.436;6.774;2022-10-31T15:31:17;12.50;;;5.15;;
13611;SDS011;6877;51.436;6.774;2022-10-31T15:33:49;16.30;;;4.93;;
13611;SDS011;6877;51.436;6.774;2022-10-31T15:36:22;7.20;;;4.82;;
13611;SDS011;6877;51.436;6.774;2022-10-31T15:38:57;8.00;;;4.50;;
13611;SDS011;6877;51.436;6.774;2022-10-31T15:41:37;12.77;;;4.55;;
13611;SDS011;6877;51.436;6.774;2022-10-31T15:47:03;8.90;;;4.10;;
13611;SDS011;6877;51.436;6.774;2022-10-31T15:52:10;13.88;;;5.05;;
13611;SDS011;6877;51.436;6.774;2022-10-31T15:54:48;18.50;;;5.75;;
13611;SDS011;6877;51.436;6.774;2022-10-31T15:57:23;8.98;;;5.28;;
13611;SDS011;6877;51.436;6.774;2022-10-31T15:59:57;9.02;;;4.78;;
13611;SDS011;6877;51.436;6.774;2022-10-31T16:02:29;13.50;;;4.95;;
13611;SDS011;6877;51.436;6.774;2022-10-31T16:05:00;8.88;;;5.05;;
13611;SDS011;6877;51.436;6.774;2022-10-31T16:07:28;10.77;;;4.63;;
13611;SDS011;6877;51.436;6.774;2022-10-31T16:10:01;13.45;;;5.28;;
13611;SDS011;6877;51.436;6.774;2022-10-31T16:12:34;24.30;;;5.25;;
13611;SDS011;6877;51.436;6.774;2022-10-31T16:15:13;10.60;;;4.88;;
13611;SDS011;6877;51.436;6.774;2022-10-31T16:17:47;12.95;;;5.07;;
13611;SDS011;6877;51.436;6.774;2022-10-31T16:20:23;10.10;;;4.40;;
13611;SDS011;6877;51.436;6.774;2022-10-31T16:22:57;9.15;;;4.43;;
13611;SDS011;6877;51.436;6.774;2022-10-31T16:25:36;8.63;;;4.43;;
13611;SDS011;6877;51.436;6.774;2022-10-31T16:28:16;8.55;;;3.95;;
13611;SDS011;6877;51.436;6.774;2022-10-31T16:30:46;14.48;;;5.05;;
13611;SDS011;6877;51.436;6.774;2022-10-31T16:35:56;12.43;;;4.47;;
13611;SDS011;6877;51.436;6.774;2022-10-31T16:38:28;6.95;;;4.78;;
13611;SDS011;6877;51.436;6.774;2022-10-31T16:40:54;9.82;;;4.20;;
13611;SDS011;6877;51.436;6.774;2022-10-31T16:43:26;9.40;;;5.32;;
13611;SDS011;6877;51.436;6.774;2022-10-31T16:45:57;8.30;;;4.47;;
13611;SDS011;6877;51.436;6.774;2022-10-31T16:48:28;9.82;;;4.53;;
13611;SDS011;6877;51.436;6.774;2022-10-31T16:51:00;7.00;;;4.32;;
13611;SDS011;6877;51.436;6.774;2022-10-31T16:53:32;12.18;;;4.95;;
13611;SDS011;6877;51.436;6.774;2022-10-31T16:56:03;10.38;;;4.22;;
13611;SDS011;6877;51.436;6.774;2022-10-31T16:58:31;5.97;;;3.47;;
13611;SDS011;6877;51.436;6.774;2022-10-31T17:01:04;8.98;;;4.40;;
13611;SDS011;6877;51.436;6.774;2022-10-31T17:03:37;10.60;;;4.60;;
13611;SDS011;6877;51.436;6.774;2022-10-31T17:06:12;8.95;;;4.28;;
13611;SDS011;6877;51.436;6.774;2022-10-31T17:08:44;11.52;;;3.70;;
13611;SDS011;6877;51.436;6.774;2022-10-31T17:11:17;8.27;;;4.38;;
13611;SDS011;6877;51.436;6.774;2022-10-31T17:13:51;7.78;;;4.07;;
13611;SDS011;6877;51.436;6.774;2022-10-31T17:16:24;6.63;;;4.03;;
13611;SDS011;6877;51.436;6.774;2022-10-31T17:18:56;7.53;;;3.70;;
13611;SDS011;6877;51.436;6.774;2022-10-31T17:21:27;10.27;;;4.45;;
13611;SDS011;6877;51.436;6.774;2022-10-31T17:23:59;7.68;;;4.07;;
13611;SDS011;6877;51.436;6.774;2022-10-31T17:26:30;8.18;;;4.38;;
13611;SDS011;6877;51.436;6.774;2022-10-31T17:29:02;9.40;;;5.60;;
13611;SDS011;6877;51.436;6.774;2022-10-31T17:31:34;16.67;;;6.30;;
13611;SDS011;6877;51.436;6.774;2022-10-31T17:34:06;14.20;;;5.90;;
13611;SDS011;6877;51.436;6.774;2022-10-31T17:36:39;8.23;;;5.18;;
13611;SDS011;6877;51.436;6.774;2022-10-31T17:39:10;9.82;;;6.10;;
13611;SDS011;6877;51.436;6.774;2022-10-31T17:41:41;13.35;;;6.28;;
13611;SDS011;6877;51.436;6.774;2022-10-31T17:44:13;15.73;;;7.15;;
13611;SDS011;6877;51.436;6.774;2022-10-31T17:46:44;16.95;;;7.18;;
13611;SDS011;6877;51.436;6.774;2022-10-31T17:49:16;13.93;;;6.07;;
13611;SDS011;6877;51.436;6.774;2022-10-31T17:51:42;10.48;;;6.13;;
13611;SDS011;6877;51.436;6.774;2022-10-31T17:54:14;15.82;;;7.03;;
13611;SDS011;6877;51.436;6.774;2022-10-31T17:56:48;12.57;;;6.45;;
13611;SDS011;6877;51.436;6.774;2022-10-31T17:59:20;17.20;;;6.13;;
13611;SDS011;6877;51.436;6.774;2022-10-31T18:01:51;11.55;;;4.32;;
13611;SDS011;6877;51.436;6.774;2022-10-31T18:04:18;9.68;;;4.95;;
13611;SDS011;6877;51.436;6.774;2022-10-31T18:06:49;12.93;;;4.35;;
13611;SDS011;6877;51.436;6.774;2022-10-31T18:09:16;10.10;;;4.60;;
13611;SDS011;6877;51.436;6.774;2022-10-31T18:11:47;9.65;;;5.03;;
13611;SDS011;6877;51.436;6.774;2022-10-31T18:14:14;13.27;;;4.72;;
13611;SDS011;6877;51.436;6.774;2022-10-31T18:16:45;7.35;;;5.13;;
13611;SDS011;6877;51.436;6.774;2022-10-31T18:19:17;17.33;;;5.30;;
13611;SDS011;6877;51.436;6.774;2022-10-31T18:21:48;11.18;;;4.70;;
13611;SDS011;6877;51.436;6.774;2022-10-31T18:24:20;11.48;;;5.25;;
13611;SDS011;6877;51.436;6.774;2022-10-31T18:26:51;13.13;;;5.78;;